Norwich, CT (06360)

11:52 PM EST on December 04, 2016 (GMT -0500)
Norwich Free Academy | | Change Station
Active Advisory: Special Statement

Elev 125 ft 41.54 °N, 72.08 °W | Updated 7 seconds ago

Clear
Clear
29.3 °F
Feels Like 29 °F
N
0.0
Wind Variable Wind from North
Gusts 2.0 mph

Today
High -- | Low -- °F
--% Chance of Precip.
Yesterday
High -- | Low -- °F
Precip. -- in
Pressure 30.17 in
Visibility 10.0 miles
Clouds Clear
Windchill 29 °F
Dew Point 24 °F
Humidity 81%
Rainfall 0.00 in
Snow Depth Not available.
6:58 AM 4:18 PM
Waxing Crescent, 28% visible
METAR KGON 050356Z AUTO 36005KT 10SM CLR 01/M04 A3017 RMK AO2 SLP215 T00111039
Pressure 30.17 in
Visibility 10.0 miles
Clouds Clear
Windchill 29 °F
Dew Point 24 °F
Humidity 81%
Rainfall 0.00 in
Snow Depth Not available.
6:58 AM 4:18 PM
Waxing Crescent, 28% visible
METAR KGON 050356Z AUTO 36005KT 10SM CLR 01/M04 A3017 RMK AO2 SLP215 T00111039

10-Day Weather Forecast

Almanac

Astronomy

Dec. 04, 2016 Rise Set
Actual Time
Civil Twilight
Nautical Twilight
Astronomical Twilight
Moon
Length of Visible Light
Length of Day
Tomorrow will be .
, % of the Moon is Illuminated

Today's Extremes

State Highs State Lows

Community

WunderPhotos

Upload Photos

1,955,757 photos uploaded!

WunderBlog® & News

Nearby

Air Quality

  Air Quality AQ Index Pollutant
Not available.

Snow Depth

Station Depth Elevation

Earthquake Activity

City Distance Mag. Time & Date
Minimum magnitude displayed is 2.5.

Coastal Water Temperatures

Place Temperature

Stations

Nearby Weather Stations

Station Location Temp. Windchill Dew Point Humidity Wind Precip. Elev Updated Type
                   

Watches & Warnings

Special Statement
Issued: 2:41 PM EST Dec. 4, 2016 – National Weather Service

... Slippery conditions early Monday morning...

Light snow will overspread the region just before sunrise.
Accumulations of up to an inch are possible before the
precipitation changes to rain by mid morning and ends by early
afternoon.

Highest amounts are expected to occur along I-84 from Danbury to
Waterbury where an inch or slightly more is anticipated.



241 PM EST sun Dec 4 2016

... Slippery conditions early Monday morning...

Light snow will overspread the region just before sunrise.
Accumulations of up to an inch are possible before the
precipitation changes to rain by mid morning and ends by early
afternoon.

Highest amounts are expected to occur along I-84 from Danbury to
Waterbury where an inch or slightly more is anticipated.



241 PM EST sun Dec 4 2016

... Slippery conditions early Monday morning...

Light snow will overspread the region just before sunrise.
Accumulations of up to an inch are possible before the
precipitation changes to rain by mid morning and ends by early
afternoon.

Highest amounts are expected to occur along I-84 from Danbury to
Waterbury where an inch or slightly more is anticipated.